Time;durP1;ratioP1;P1;durP2;ratioP2;P2;SDS_P1;SDS_P2;PMS_P1;PMS_P2;Temp;Humidity;BMP_temperature;BMP_pressure;BME280_temperature;BME280_humidity;BME280_pressure;Samples;Min_cycle;Max_cycle;Signal;HPM_P1;HPM_P2
2023/07/07 00:01:48;;;;;;;;;;;;;;;;;;5072512;28;20015;-65
2023/07/07 00:04:15;;;;;;;;;;;;;;;;;;5071868;28;20043;-65
2023/07/07 00:06:42;;;;;;;;;;;;;;;;;;5072328;28;19930;-65
2023/07/07 00:09:09;;;;;;;;;;;;;;;;;;5071910;28;20015;-65
2023/07/07 00:11:36;;;;;;;;;;;;;;;;;;5072135;28;19996;-65
2023/07/07 00:14:03;;;;;;;;;;;;;;;;;;5080333;28;19931;-65
2023/07/07 00:16:32;;;;;;;;;;;;;;;;;;5071759;28;20202;-65
2023/07/07 00:18:59;;;;;;;;;;;;;;;;;;5071742;28;19986;-65
2023/07/07 00:21:26;;;;;;;;;;;;;;;;;;5070546;28;19925;-65
2023/07/07 00:23:53;;;;;;;;;;;;;;;;;;5071979;28;19924;-65
2023/07/07 00:26:20;;;;;;;;;;;;;;;;;;5072606;28;19924;-65
2023/07/07 00:28:47;;;;;;;;;;;;;;;;;;5071857;28;19978;-66
2023/07/07 00:31:14;;;;;;;;;;;;;;;;;;5071905;28;19925;-65
2023/07/07 00:33:41;;;;;;;;;;;;;;;;;;5071200;28;20566;-65
2023/07/07 00:36:08;;;;;;;;;;;;;;;;;;5072990;28;20011;-66
2023/07/07 00:38:35;;;;;;;;;;;;;;;;;;5072975;28;20024;-65
2023/07/07 00:41:02;;;;;;;;;;;;;;;;;;5072204;28;20011;-65
2023/07/07 00:43:29;;;;;;;;;;;;;;;;;;5070077;28;20010;-66
2023/07/07 00:45:56;;;;;;;;;;;;;;;;;;5073046;28;20031;-66
2023/07/07 00:48:23;;;;;;;;;;;;;;;;;;5093084;28;19923;-65
2023/07/07 00:50:50;;;;;;;;;;;;;;;;;;5070842;28;19978;-65
2023/07/07 00:53:17;;;;;;;;;;;;;;;;;;5071834;28;20022;-65
2023/07/07 00:55:44;;;;;;;;;;;;;;;;;;5071742;28;20011;-66
2023/07/07 00:58:11;;;;;;;;;;;;;;;;;;5072713;28;20019;-65
2023/07/07 01:00:38;;;;;;;;;;;;;;;;;;5071773;28;20367;-65
2023/07/07 01:03:05;;;;;;;;;;;;;;;;;;5063783;28;20406;-65
2023/07/07 01:05:32;;;;;;;;;;;;;;;;;;5071932;28;19931;-65
2023/07/07 01:07:59;;;;;;;;;;;;;;;;;;5068725;28;19964;-66
2023/07/07 01:10:26;;;;;;;;;;;;;;;;;;5072259;28;20022;-65
2023/07/07 01:12:53;;;;;;;;;;;;;;;;;;5071408;28;20034;-65
2023/07/07 01:15:20;;;;;;;;;;;;;;;;;;5070065;28;19928;-65
2023/07/07 01:17:47;;;;;;;;;;;;;;;;;;5069022;28;20015;-65
2023/07/07 01:20:14;;;;;;;;;;;;;;;;;;5071433;28;20114;-65
2023/07/07 01:22:41;;;;;;;;;;;;;;;;;;5071287;28;19924;-65
2023/07/07 01:25:07;;;;;;;;;;;;;;;;;;5069636;28;20023;-65
2023/07/07 01:27:35;;;;;;;;;;;;;;;;;;5071297;28;19928;-65
2023/07/07 01:30:02;;;;;;;;;;;;;;;;;;5070295;28;19932;-65
2023/07/07 01:32:29;;;;;;;;;;;;;;;;;;5071789;28;19948;-65
2023/07/07 01:34:56;;;;;;;;;;;;;;;;;;5069404;28;19946;-65
2023/07/07 01:37:23;;;;;;;;;;;;;;;;;;5076880;28;19932;-65
2023/07/07 01:39:50;;;;;;;;;;;;;;;;;;5092025;28;20454;-65
2023/07/07 01:42:17;;;;;;;;;;;;;;;;;;5082473;28;20011;-65
2023/07/07 01:44:44;;;;;;;;;;;;;;;;;;5071052;28;20008;-65
2023/07/07 01:47:11;;;;;;;;;;;;;;;;;;5072184;28;19947;-65
2023/07/07 01:49:38;;;;;;;;;;;;;;;;;;5069880;28;20351;-65
2023/07/07 01:52:05;;;;;;;;;;;;;;;;;;5070053;28;20102;-65
2023/07/07 01:54:32;;;;;;;;;;;;;;;;;;5070777;28;20016;-65
2023/07/07 01:56:59;;;;;;;;;;;;;;;;;;5072048;28;19963;-65
2023/07/07 01:59:26;;;;;;;;;;;;;;;;;;5071914;28;19963;-65
2023/07/07 02:01:55;;;;;;;;;;;;;;;;;;5071773;28;19986;-65
2023/07/07 02:04:22;;;;;;;;;;;;;;;;;;5069601;28;20011;-64
2023/07/07 02:06:49;;;;;;;;;;;;;;;;;;5070995;28;20019;-64
2023/07/07 02:09:16;;;;;;;;;;;;;;;;;;5071419;28;20518;-64
2023/07/07 02:11:43;;;;;;;;;;;;;;;;;;5068017;28;20427;-65
2023/07/07 02:14:10;;;;;;;;;;;;;;;;;;5069386;28;20478;-65
2023/07/07 02:16:37;;;;;;;;;;;;;;;;;;5070977;28;20385;-65
2023/07/07 02:19:04;;;;;;;;;;;;;;;;;;5069797;28;20045;-65
2023/07/07 02:21:31;;;;;;;;;;;;;;;;;;5071104;28;20341;-65
2023/07/07 02:23:58;;;;;;;;;;;;;;;;;;5069448;28;20353;-66
2023/07/07 02:26:25;;;;;;;;;;;;;;;;;;5070823;28;20023;-65
2023/07/07 02:28:52;;;;;;;;;;;;;;;;;;5074968;28;19932;-65
2023/07/07 02:31:19;;;;;;;;;;;;;;;;;;5073634;28;20023;-65
2023/07/07 02:33:46;;;;;;;;;;;;;;;;;;5072814;28;19932;-65
2023/07/07 02:36:13;;;;;;;;;;;;;;;;;;5074681;28;19928;-65
2023/07/07 02:38:39;;;;;;;;;;;;;;;;;;5075269;28;20039;-65
2023/07/07 02:41:06;;;;;;;;;;;;;;;;;;5074912;28;19972;-64
2023/07/07 02:43:33;;;;;;;;;;;;;;;;;;5070088;28;19932;-65
2023/07/07 02:46:00;;;;;;;;;;;;;;;;;;5082354;28;20022;-65
2023/07/07 02:48:27;;;;;;;;;;;;;;;;;;5071974;28;19924;-64
2023/07/07 02:50:54;;;;;;;;;;;;;;;;;;5073064;28;20019;-64
2023/07/07 02:53:21;;;;;;;;;;;;;;;;;;5072395;28;19924;-63
2023/07/07 02:55:48;;;;;;;;;;;;;;;;;;5073043;28;19932;-65
2023/07/07 02:58:15;;;;;;;;;;;;;;;;;;5074572;28;20027;-65
2023/07/07 03:00:42;;;;;;;;;;;;;;;;;;5073970;28;20027;-65
2023/07/07 03:03:09;;;;;;;;;;;;;;;;;;5076832;28;20471;-65
2023/07/07 03:05:36;;;;;;;;;;;;;;;;;;5072414;28;19925;-65
2023/07/07 03:08:03;;;;;;;;;;;;;;;;;;5072696;28;19972;-66
2023/07/07 03:10:30;;;;;;;;;;;;;;;;;;5073860;28;19924;-65
2023/07/07 03:12:57;;;;;;;;;;;;;;;;;;5075262;28;19924;-65
2023/07/07 03:15:24;;;;;;;;;;;;;;;;;;5073766;28;19971;-65
2023/07/07 03:17:51;;;;;;;;;;;;;;;;;;5074131;28;20012;-65
2023/07/07 03:20:18;;;;;;;;;;;;;;;;;;5078043;28;19931;-65
2023/07/07 03:22:45;;;;;;;;;;;;;;;;;;5073544;28;20019;-65
2023/07/07 03:25:12;;;;;;;;;;;;;;;;;;5068207;28;20019;-65
2023/07/07 03:27:39;;;;;;;;;;;;;;;;;;5073133;28;20010;-65
2023/07/07 03:30:06;;;;;;;;;;;;;;;;;;5072691;28;20007;-65
2023/07/07 03:32:33;;;;;;;;;;;;;;;;;;5073020;28;19963;-65
2023/07/07 03:35:00;;;;;;;;;;;;;;;;;;5073287;28;19929;-65
2023/07/07 03:37:28;;;;;;;;;;;;;;;;;;5072857;28;19931;-65
2023/07/07 03:39:55;;;;;;;;;;;;;;;;;;5073351;28;19924;-65
2023/07/07 03:42:22;;;;;;;;;;;;;;;;;;5073586;28;20463;-64
2023/07/07 03:44:49;;;;;;;;;;;;;;;;;;5073829;28;19924;-63
2023/07/07 03:47:16;;;;;;;;;;;;;;;;;;5072734;28;20012;-65
2023/07/07 03:49:43;;;;;;;;;;;;;;;;;;5072151;28;20035;-63
2023/07/07 03:52:10;;;;;;;;;;;;;;;;;;5072988;28;19931;-63
2023/07/07 03:54:36;;;;;;;;;;;;;;;;;;5071673;28;20555;-63
2023/07/07 03:57:03;;;;;;;;;;;;;;;;;;5075608;28;19975;-65
2023/07/07 03:59:30;;;;;;;;;;;;;;;;;;5093369;28;20015;-66
2023/07/07 04:01:57;;;;;;;;;;;;;;;;;;5093865;28;20011;-64
2023/07/07 04:04:24;;;;;;;;;;;;;;;;;;5074906;28;20395;-64
2023/07/07 04:06:51;;;;;;;;;;;;;;;;;;5072006;28;20370;-63
2023/07/07 04:09:18;;;;;;;;;;;;;;;;;;5072093;28;20385;-63
2023/07/07 04:11:45;;;;;;;;;;;;;;;;;;5073735;28;19924;-64
2023/07/07 04:14:12;;;;;;;;;;;;;;;;;;5071204;28;20007;-64
2023/07/07 04:16:39;;;;;;;;;;;;;;;;;;5070665;28;19975;-63
2023/07/07 04:19:06;;;;;;;;;;;;;;;;;;5070901;28;20011;-64
2023/07/07 04:21:34;;;;;;;;;;;;;;;;;;5071670;28;20057;-63
2023/07/07 04:24:01;;;;;;;;;;;;;;;;;;5072136;28;20031;-64
2023/07/07 04:26:28;;;;;;;;;;;;;;;;;;5072381;28;20031;-64
2023/07/07 04:28:55;;;;;;;;;;;;;;;;;;5070181;28;19925;-64
2023/07/07 04:31:23;;;;;;;;;;;;;;;;;;5067206;28;20015;-65
2023/07/07 04:33:50;;;;;;;;;;;;;;;;;;5069103;28;20327;-64
2023/07/07 04:36:17;;;;;;;;;;;;;;;;;;5072043;28;19924;-67
2023/07/07 04:38:44;;;;;;;;;;;;;;;;;;5071364;28;19985;-65
2023/07/07 04:41:11;;;;;;;;;;;;;;;;;;5071568;28;19924;-64
2023/07/07 04:43:38;;;;;;;;;;;;;;;;;;5072063;28;19972;-64
2023/07/07 04:46:05;;;;;;;;;;;;;;;;;;5085329;28;20014;-64
2023/07/07 04:48:32;;;;;;;;;;;;;;;;;;5070946;28;20015;-65
2023/07/07 04:50:59;;;;;;;;;;;;;;;;;;5070575;28;19925;-64
2023/07/07 04:53:27;;;;;;;;;;;;;;;;;;5071409;28;19931;-65
2023/07/07 04:55:54;;;;;;;;;;;;;;;;;;5072159;28;19974;-65
2023/07/07 04:58:21;;;;;;;;;;;;;;;;;;5070644;28;19932;-64
2023/07/07 05:00:48;;;;;;;;;;;;;;;;;;5071849;28;19931;-65
2023/07/07 05:03:15;;;;;;;;;;;;;;;;;;5076579;28;19928;-64
2023/07/07 05:05:42;;;;;;;;;;;;;;;;;;5055901;28;20015;-65
2023/07/07 05:08:09;;;;;;;;;;;;;;;;;;5061462;28;19979;-65
2023/07/07 05:10:36;;;;;;;;;;;;;;;;;;5060591;28;19928;-64
2023/07/07 05:13:03;;;;;;;;;;;;;;;;;;5062469;28;19934;-64
2023/07/07 05:15:31;;;;;;;;;;;;;;;;;;5069801;28;20356;-64
2023/07/07 05:17:58;;;;;;;;;;;;;;;;;;5069205;28;19934;-65
2023/07/07 05:20:25;;;;;;;;;;;;;;;;;;5069033;28;20007;-65
2023/07/07 05:22:52;;;;;;;;;;;;;;;;;;5064092;28;19924;-65
2023/07/07 05:25:19;;;;;;;;;;;;;;;;;;5064961;28;20012;-65
2023/07/07 05:27:46;;;;;;;;;;;;;;;;;;5068918;28;20023;-65
2023/07/07 05:30:13;;;;;;;;;;;;;;;;;;5067891;28;19928;-66
2023/07/07 05:32:40;;;;;;;;;;;;;;;;;;5068870;28;20383;-66
2023/07/07 05:35:07;;;;;;;;;;;;;;;;;;5068242;28;20295;-66
2023/07/07 05:37:33;;;;;;;;;;;;;;;;;;5068087;28;20349;-66
2023/07/07 05:40:00;;;;;;;;;;;;;;;;;;5069625;28;19929;-66
2023/07/07 05:42:27;;;;;;;;;;;;;;;;;;5066770;28;19946;-67
2023/07/07 05:44:54;;;;;;;;;;;;;;;;;;5068319;28;19925;-66
2023/07/07 05:47:21;;;;;;;;;;;;;;;;;;5064831;28;20023;-66
2023/07/07 05:49:48;;;;;;;;;;;;;;;;;;5064800;28;19955;-67
2023/07/07 05:52:15;;;;;;;;;;;;;;;;;;5071559;28;19924;-67
2023/07/07 05:54:42;;;;;;;;;;;;;;;;;;5070759;28;19970;-66
2023/07/07 05:57:09;;;;;;;;;;;;;;;;;;5064736;28;20016;-66
2023/07/07 05:59:36;;;;;;;;;;;;;;;;;;5064101;28;19931;-65
2023/07/07 06:02:03;;;;;;;;;;;;;;;;;;5061805;28;20601;-65
2023/07/07 06:04:30;;;;;;;;;;;;;;;;;;5071727;28;19925;-65
2023/07/07 06:06:57;;;;;;;;;;;;;;;;;;5072718;28;19951;-65
2023/07/07 06:09:24;;;;;;;;;;;;;;;;;;5073103;28;20351;-66
2023/07/07 06:11:51;;;;;;;;;;;;;;;;;;5066351;28;20379;-66
2023/07/07 06:14:19;;;;;;;;;;;;;;;;;;5069652;28;19958;-66
2023/07/07 06:16:45;;;;;;;;;;;;;;;;;;5063178;28;20023;-67
2023/07/07 06:19:12;;;;;;;;;;;;;;;;;;5069610;28;20011;-66
2023/07/07 06:21:39;;;;;;;;;;;;;;;;;;5072614;28;20370;-66
2023/07/07 06:24:06;;;;;;;;;;;;;;;;;;5064178;28;20458;-66
2023/07/07 06:26:33;;;;;;;;;;;;;;;;;;5069060;28;19960;-67
2023/07/07 06:29:00;;;;;;;;;;;;;;;;;;5069417;28;19936;-67
2023/07/07 06:31:28;;;;;;;;;;;;;;;;;;5070410;28;20367;-66
2023/07/07 06:33:55;;;;;;;;;;;;;;;;;;5072214;28;19931;-67
2023/07/07 06:36:22;;;;;;;;;;;;;;;;;;5068525;28;19933;-67
2023/07/07 06:38:49;;;;;;;;;;;;;;;;;;5066434;28;20466;-67
2023/07/07 06:41:16;;;;;;;;;;;;;;;;;;5066318;28;19978;-67
2023/07/07 06:43:43;;;;;;;;;;;;;;;;;;5064813;28;20007;-67
2023/07/07 06:46:10;;;;;;;;;;;;;;;;;;5071379;28;20029;-67
2023/07/07 06:48:37;;;;;;;;;;;;;;;;;;5064893;28;20479;-67
2023/07/07 06:51:04;;;;;;;;;;;;;;;;;;5070934;28;19970;-67
2023/07/07 06:53:31;;;;;;;;;;;;;;;;;;5067829;28;19971;-67
2023/07/07 06:55:58;;;;;;;;;;;;;;;;;;5067649;28;20383;-67
2023/07/07 06:58:25;;;;;;;;;;;;;;;;;;5064272;28;20311;-67
2023/07/07 07:00:52;;;;;;;;;;;;;;;;;;5066440;28;19970;-67
2023/07/07 07:03:19;;;;;;;;;;;;;;;;;;5066905;28;19925;-67
2023/07/07 07:05:46;;;;;;;;;;;;;;;;;;5070738;28;20434;-67
2023/07/07 07:08:13;;;;;;;;;;;;;;;;;;5067941;28;20286;-67
2023/07/07 07:10:40;;;;;;;;;;;;;;;;;;5071492;28;19966;-67
2023/07/07 07:13:08;;;;;;;;;;;;;;;;;;5064957;28;19925;-67
2023/07/07 07:15:35;;;;;;;;;;;;;;;;;;5064239;28;19994;-67
2023/07/07 07:18:02;;;;;;;;;;;;;;;;;;5074367;28;20372;-67
2023/07/07 07:20:29;;;;;;;;;;;;;;;;;;5064421;28;20551;-66
2023/07/07 07:22:56;;;;;;;;;;;;;;;;;;5066486;28;19978;-70
2023/07/07 07:25:23;;;;;;;;;;;;;;;;;;5068383;28;19928;-70
2023/07/07 07:27:50;;;;;;;;;;;;;;;;;;5068541;28;19936;-67
2023/07/07 07:30:17;;;;;;;;;;;;;;;;;;5064541;28;19925;-69
2023/07/07 07:32:44;;;;;;;;;;;;;;;;;;5070684;28;19975;-68
2023/07/07 07:35:11;;;;;;;;;;;;;;;;;;5068109;28;20299;-68
2023/07/07 07:37:38;;;;;;;;;;;;;;;;;;5067575;28;20398;-67
2023/07/07 07:40:05;;;;;;;;;;;;;;;;;;5068495;28;19924;-68
2023/07/07 07:42:32;;;;;;;;;;;;;;;;;;5073275;28;19970;-67
2023/07/07 07:44:59;;;;;;;;;;;;;;;;;;5068236;28;20360;-67
2023/07/07 07:47:26;;;;;;;;;;;;;;;;;;5061967;28;20019;-67
2023/07/07 07:49:53;;;;;;;;;;;;;;;;;;5066312;28;19955;-68
2023/07/07 07:52:20;;;;;;;;;;;;;;;;;;5071151;28;19954;-67
2023/07/07 07:54:46;;;;;;;;;;;;;;;;;;5070267;28;19924;-68
2023/07/07 07:57:16;;;;;;;;;;;;;;;;;;5069323;28;20019;-67
2023/07/07 07:59:43;;;;;;;;;;;;;;;;;;5067169;28;20824;-68
2023/07/07 08:02:10;;;;;;;;;;;;;;;;;;5065212;28;19924;-67
2023/07/07 08:04:37;;;;;;;;;;;;;;;;;;5069963;28;19959;-67
2023/07/07 08:07:04;;;;;;;;;;;;;;;;;;5067024;28;20011;-67
2023/07/07 08:09:31;;;;;;;;;;;;;;;;;;5069205;28;20015;-67
2023/07/07 08:11:58;;;;;;;;;;;;;;;;;;5067596;28;20509;-68
2023/07/07 08:14:30;;;;;;;;;;;;;;;;;;5069987;28;20015;-67
2023/07/07 08:16:56;;;;;;;;;;;;;;;;;;5068394;28;20287;-68
2023/07/07 08:19:23;;;;;;;;;;;;;;;;;;5069968;28;20027;-67
2023/07/07 08:21:50;;;;;;;;;;;;;;;;;;5066417;28;19985;-70
2023/07/07 08:24:17;;;;;;;;;;;;;;;;;;5067443;28;20023;-70
2023/07/07 08:26:46;;;;;;;;;;;;;;;;;;5068888;28;20344;-70
2023/07/07 08:29:13;;;;;;;;;;;;;;;;;;5062798;28;19939;-67
2023/07/07 08:31:40;;;;;;;;;;;;;;;;;;5066826;28;20015;-70
2023/07/07 08:34:07;;;;;;;;;;;;;;;;;;5067692;28;20011;-67
2023/07/07 08:36:34;;;;;;;;;;;;;;;;;;5067162;28;20443;-70
2023/07/07 08:39:02;;;;;;;;;;;;;;;;;;5069573;28;20015;-70
2023/07/07 08:41:29;;;;;;;;;;;;;;;;;;5066033;28;19925;-69
2023/07/07 08:43:56;;;;;;;;;;;;;;;;;;5083990;28;20011;-69
2023/07/07 08:46:23;;;;;;;;;;;;;;;;;;5068485;28;19932;-69
2023/07/07 08:48:52;;;;;;;;;;;;;;;;;;5065608;28;20024;-69
2023/07/07 08:51:19;;;;;;;;;;;;;;;;;;5066479;28;20434;-68
2023/07/07 08:53:46;;;;;;;;;;;;;;;;;;5071727;28;19979;-68
2023/07/07 08:56:13;;;;;;;;;;;;;;;;;;5066449;28;19932;-68
2023/07/07 08:58:40;;;;;;;;;;;;;;;;;;5072562;28;19925;-68
2023/07/07 09:01:08;;;;;;;;;;;;;;;;;;5069281;28;20030;-68
2023/07/07 09:03:35;;;;;;;;;;;;;;;;;;5059270;28;20021;-67
2023/07/07 09:06:02;;;;;;;;;;;;;;;;;;5067507;28;19974;-67
2023/07/07 09:08:29;;;;;;;;;;;;;;;;;;5067700;28;20314;-68
2023/07/07 09:10:56;;;;;;;;;;;;;;;;;;5060717;28;20291;-68
2023/07/07 09:13:23;;;;;;;;;;;;;;;;;;5060697;28;20283;-69
2023/07/07 09:15:50;;;;;;;;;;;;;;;;;;5066763;28;19959;-67
2023/07/07 09:18:17;;;;;;;;;;;;;;;;;;5067074;28;19924;-68
2023/07/07 09:20:44;;;;;;;;;;;;;;;;;;5064588;28;20118;-70
2023/07/07 09:23:11;;;;;;;;;;;;;;;;;;5068740;28;20027;-69
2023/07/07 09:25:38;;;;;;;;;;;;;;;;;;5059791;28;20007;-69
2023/07/07 09:28:05;;;;;;;;;;;;;;;;;;5065213;28;19929;-70
2023/07/07 09:30:32;;;;;;;;;;;;;;;;;;5063111;28;20023;-69
2023/07/07 09:32:59;;;;;;;;;;;;;;;;;;5062926;28;19949;-69
2023/07/07 09:35:26;;;;;;;;;;;;;;;;;;5062651;28;19979;-69
2023/07/07 09:37:53;;;;;;;;;;;;;;;;;;5062456;28;19924;-69
2023/07/07 09:40:20;;;;;;;;;;;;;;;;;;5062772;28;19929;-69
2023/07/07 09:42:47;;;;;;;;;;;;;;;;;;5062707;28;20003;-69
2023/07/07 09:45:14;;;;;;;;;;;;;;;;;;5061924;28;19990;-69
2023/07/07 09:47:41;;;;;;;;;;;;;;;;;;5053752;28;19984;-69
2023/07/07 09:50:08;;;;;;;;;;;;;;;;;;5073541;28;20011;-68
2023/07/07 09:52:36;;;;;;;;;;;;;;;;;;5072479;28;19930;-69
2023/07/07 09:55:03;;;;;;;;;;;;;;;;;;5062645;28;19925;-69
2023/07/07 09:57:30;;;;;;;;;;;;;;;;;;5059160;28;19957;-68
2023/07/07 09:59:58;;;;;;;;;;;;;;;;;;5062431;28;19932;-69
2023/07/07 10:02:25;;;;;;;;;;;;;;;;;;5055125;28;19924;-68
2023/07/07 10:04:52;;;;;;;;;;;;;;;;;;5065265;28;19960;-70
2023/07/07 10:07:19;;;;;;;;;;;;;;;;;;5085387;28;19978;-68
2023/07/07 10:09:46;;;;;;;;;;;;;;;;;;5069486;28;19936;-68
2023/07/07 10:12:13;;;;;;;;;;;;;;;;;;5069928;28;20268;-68
2023/07/07 10:14:40;;;;;;;;;;;;;;;;;;5058475;28;20020;-68
2023/07/07 10:17:07;;;;;;;;;;;;;;;;;;5065664;28;20005;-69
2023/07/07 10:19:34;;;;;;;;;;;;;;;;;;5064026;28;19933;-69
2023/07/07 10:22:01;;;;;;;;;;;;;;;;;;5060875;28;19928;-69
2023/07/07 10:24:28;;;;;;;;;;;;;;;;;;5066632;28;20024;-68
2023/07/07 10:26:57;;;;;;;;;;;;;;;;;;5065098;28;19931;-68
2023/07/07 10:29:26;;;;;;;;;;;;;;;;;;5067640;28;20021;-69
2023/07/07 10:31:53;;;;;;;;;;;;;;;;;;5066014;28;19952;-69
2023/07/07 10:34:20;;;;;;;;;;;;;;;;;;5061118;28;20020;-69
2023/07/07 10:36:47;;;;;;;;;;;;;;;;;;5069275;28;20015;-69
2023/07/07 10:39:14;;;;;;;;;;;;;;;;;;5065362;28;19924;-69
2023/07/07 10:41:41;;;;;;;;;;;;;;;;;;5067544;28;19978;-69
2023/07/07 10:44:08;;;;;;;;;;;;;;;;;;5066848;28;19935;-68
2023/07/07 10:46:35;;;;;;;;;;;;;;;;;;5070520;28;19924;-68
2023/07/07 10:49:03;;;;;;;;;;;;;;;;;;5070770;28;20361;-69
2023/07/07 10:51:30;;;;;;;;;;;;;;;;;;5071491;28;19931;-68
2023/07/07 10:53:57;;;;;;;;;;;;;;;;;;5065355;28;20024;-69
2023/07/07 10:56:24;;;;;;;;;;;;;;;;;;5068927;28;20011;-69
2023/07/07 10:58:51;;;;;;;;;;;;;;;;;;5068373;28;20019;-68
2023/07/07 11:01:18;;;;;;;;;;;;;;;;;;5068902;28;20015;-69
2023/07/07 11:03:45;;;;;;;;;;;;;;;;;;5067559;28;19931;-69
2023/07/07 11:06:12;;;;;;;;;;;;;;;;;;5063766;28;20348;-68
2023/07/07 11:08:39;;;;;;;;;;;;;;;;;;5064543;28;19940;-68
2023/07/07 11:11:06;;;;;;;;;;;;;;;;;;5064178;28;19960;-68
2023/07/07 11:13:33;;;;;;;;;;;;;;;;;;5068938;28;20635;-68
2023/07/07 11:16:00;;;;;;;;;;;;;;;;;;5073158;28;19924;-69
2023/07/07 11:18:27;;;;;;;;;;;;;;;;;;5065074;28;20309;-69
2023/07/07 11:20:54;;;;;;;;;;;;;;;;;;5069880;28;21288;-69
2023/07/07 11:23:21;;;;;;;;;;;;;;;;;;5067131;28;19960;-69
2023/07/07 11:25:48;;;;;;;;;;;;;;;;;;5071256;28;19960;-68
2023/07/07 11:28:15;;;;;;;;;;;;;;;;;;5065188;28;19931;-69
2023/07/07 11:30:42;;;;;;;;;;;;;;;;;;5069148;28;20419;-69
2023/07/07 11:33:09;;;;;;;;;;;;;;;;;;5068987;28;20028;-69
2023/07/07 11:35:38;;;;;;;;;;;;;;;;;;5071475;28;20016;-69
2023/07/07 11:38:05;;;;;;;;;;;;;;;;;;5062023;28;19933;-67
2023/07/07 11:40:32;;;;;;;;;;;;;;;;;;5070838;28;19933;-67
2023/07/07 11:42:59;;;;;;;;;;;;;;;;;;5070586;28;20466;-71
2023/07/07 11:45:25;;;;;;;;;;;;;;;;;;5071336;28;20331;-70
2023/07/07 11:47:55;;;;;;;;;;;;;;;;;;5066780;28;20005;-68
2023/07/07 11:50:22;;;;;;;;;;;;;;;;;;5070765;28;19939;-68
2023/07/07 11:52:49;;;;;;;;;;;;;;;;;;5068279;28;19924;-69
2023/07/07 11:55:16;;;;;;;;;;;;;;;;;;5066537;28;20023;-69
2023/07/07 11:57:43;;;;;;;;;;;;;;;;;;5067154;28;20008;-69
2023/07/07 12:00:10;;;;;;;;;;;;;;;;;;5066255;28;19978;-68
2023/07/07 12:02:37;;;;;;;;;;;;;;;;;;5070005;28;19925;-69
2023/07/07 12:05:04;;;;;;;;;;;;;;;;;;5068494;28;20003;-68
2023/07/07 12:07:31;;;;;;;;;;;;;;;;;;5067309;28;20279;-68
2023/07/07 12:09:59;;;;;;;;;;;;;;;;;;5070016;28;20587;-68
2023/07/07 12:12:26;;;;;;;;;;;;;;;;;;5066592;28;20335;-69
2023/07/07 12:14:53;;;;;;;;;;;;;;;;;;5064426;28;19932;-69
2023/07/07 12:17:20;;;;;;;;;;;;;;;;;;5068164;28;19980;-70
2023/07/07 12:19:47;;;;;;;;;;;;;;;;;;5070600;28;19967;-67
2023/07/07 12:22:14;;;;;;;;;;;;;;;;;;5065370;28;20413;-69
2023/07/07 12:24:41;;;;;;;;;;;;;;;;;;5067744;28;19970;-68
2023/07/07 12:27:09;;;;;;;;;;;;;;;;;;5068160;28;20015;-68
2023/07/07 12:29:36;;;;;;;;;;;;;;;;;;5067777;28;20011;-68
2023/07/07 12:32:03;;;;;;;;;;;;;;;;;;5071239;28;19975;-68
2023/07/07 12:34:30;;;;;;;;;;;;;;;;;;5061082;28;19925;-68
2023/07/07 12:36:57;;;;;;;;;;;;;;;;;;5066410;28;20026;-68
2023/07/07 12:39:24;;;;;;;;;;;;;;;;;;5066867;28;19924;-68
2023/07/07 12:41:51;;;;;;;;;;;;;;;;;;5062359;28;20357;-68
2023/07/07 12:44:18;;;;;;;;;;;;;;;;;;5062355;28;20993;-69
2023/07/07 12:46:45;;;;;;;;;;;;;;;;;;5070310;28;20015;-68
2023/07/07 12:49:12;;;;;;;;;;;;;;;;;;5068865;28;19924;-68
2023/07/07 12:51:39;;;;;;;;;;;;;;;;;;5069503;28;19993;-69
2023/07/07 12:54:06;;;;;;;;;;;;;;;;;;5070597;28;19978;-69
2023/07/07 12:56:33;;;;;;;;;;;;;;;;;;5067938;28;19924;-69
2023/07/07 12:59:01;;;;;;;;;;;;;;;;;;5069974;28;20020;-70
2023/07/07 13:01:27;;;;;;;;;;;;;;;;;;5069758;28;19924;-69
2023/07/07 13:03:54;;;;;;;;;;;;;;;;;;5065639;28;19940;-69
2023/07/07 13:06:21;;;;;;;;;;;;;;;;;;5069768;28;19967;-69
2023/07/07 13:08:48;;;;;;;;;;;;;;;;;;5069071;28;20008;-70
2023/07/07 13:11:15;;;;;;;;;;;;;;;;;;5060799;28;19924;-71
2023/07/07 13:13:42;;;;;;;;;;;;;;;;;;5064744;28;19935;-69
2023/07/07 13:16:09;;;;;;;;;;;;;;;;;;5066207;28;19994;-69
2023/07/07 13:18:36;;;;;;;;;;;;;;;;;;5063864;28;20019;-69
2023/07/07 13:21:04;;;;;;;;;;;;;;;;;;5060507;28;20023;-68
2023/07/07 13:23:31;;;;;;;;;;;;;;;;;;5061781;28;20338;-68
2023/07/07 13:25:58;;;;;;;;;;;;;;;;;;5064747;28;19998;-68
2023/07/07 13:28:24;;;;;;;;;;;;;;;;;;5060510;28;20011;-68
2023/07/07 13:30:51;;;;;;;;;;;;;;;;;;5067672;28;20393;-68
2023/07/07 13:33:18;;;;;;;;;;;;;;;;;;5064567;28;20310;-68
2023/07/07 13:35:45;;;;;;;;;;;;;;;;;;5068788;28;20053;-67
2023/07/07 13:38:12;;;;;;;;;;;;;;;;;;5062003;28;20015;-69
2023/07/07 13:40:40;;;;;;;;;;;;;;;;;;5062333;28;20338;-69
2023/07/07 13:43:07;;;;;;;;;;;;;;;;;;5066241;28;19924;-71
2023/07/07 13:45:34;;;;;;;;;;;;;;;;;;5066489;28;19924;-69
2023/07/07 13:48:01;;;;;;;;;;;;;;;;;;5067341;28;19936;-69
2023/07/07 13:50:28;;;;;;;;;;;;;;;;;;5066333;28;20007;-70
2023/07/07 13:52:55;;;;;;;;;;;;;;;;;;5056626;28;19924;-69
2023/07/07 13:55:22;;;;;;;;;;;;;;;;;;5062741;28;20023;-69
2023/07/07 13:57:49;;;;;;;;;;;;;;;;;;5066284;28;20028;-69
2023/07/07 14:00:16;;;;;;;;;;;;;;;;;;5065356;28;19925;-69
2023/07/07 14:02:43;;;;;;;;;;;;;;;;;;5066277;28;20009;-69
2023/07/07 14:05:10;;;;;;;;;;;;;;;;;;5068563;28;19928;-69
2023/07/07 14:07:37;;;;;;;;;;;;;;;;;;5062966;28;19925;-68
2023/07/07 14:10:04;;;;;;;;;;;;;;;;;;5060554;28;19955;-70
2023/07/07 14:12:31;;;;;;;;;;;;;;;;;;5060660;28;19925;-69
2023/07/07 14:14:58;;;;;;;;;;;;;;;;;;5064652;28;19959;-69
2023/07/07 14:17:25;;;;;;;;;;;;;;;;;;5062085;28;19978;-68
2023/07/07 14:19:52;;;;;;;;;;;;;;;;;;5066326;28;20399;-70
2023/07/07 14:22:19;;;;;;;;;;;;;;;;;;5061814;28;20338;-69
2023/07/07 14:24:46;;;;;;;;;;;;;;;;;;5071878;28;20019;-69
2023/07/07 14:27:13;;;;;;;;;;;;;;;;;;5062685;28;20451;-69
2023/07/07 14:29:40;;;;;;;;;;;;;;;;;;5069884;28;20389;-69
2023/07/07 14:32:07;;;;;;;;;;;;;;;;;;5071058;28;20446;-69
2023/07/07 14:34:34;;;;;;;;;;;;;;;;;;5068246;28;19981;-69
2023/07/07 14:37:01;;;;;;;;;;;;;;;;;;5068364;28;20018;-68
2023/07/07 14:39:28;;;;;;;;;;;;;;;;;;5073350;28;20471;-68
2023/07/07 14:41:55;;;;;;;;;;;;;;;;;;5065024;28;20066;-68
2023/07/07 14:44:22;;;;;;;;;;;;;;;;;;5070160;28;19963;-68
2023/07/07 14:46:49;;;;;;;;;;;;;;;;;;5067213;28;19974;-69
2023/07/07 14:49:16;;;;;;;;;;;;;;;;;;5071719;28;19924;-68
2023/07/07 14:51:43;;;;;;;;;;;;;;;;;;5070637;28;19982;-69
2023/07/07 14:54:10;;;;;;;;;;;;;;;;;;5069528;28;20012;-69
2023/07/07 14:56:37;;;;;;;;;;;;;;;;;;5068330;28;20126;-70
2023/07/07 14:59:04;;;;;;;;;;;;;;;;;;5066409;28;20301;-69
2023/07/07 15:01:31;;;;;;;;;;;;;;;;;;5067271;28;19970;-68
2023/07/07 15:03:58;;;;;;;;;;;;;;;;;;5081127;28;19983;-69
2023/07/07 15:06:25;;;;;;;;;;;;;;;;;;5071035;28;19924;-69
2023/07/07 15:08:52;;;;;;;;;;;;;;;;;;5066534;28;19931;-68
2023/07/07 15:11:19;;;;;;;;;;;;;;;;;;5066225;28;19933;-68
2023/07/07 15:13:46;;;;;;;;;;;;;;;;;;5068798;28;19925;-70
2023/07/07 15:16:13;;;;;;;;;;;;;;;;;;5066087;28;19985;-69
2023/07/07 15:18:40;;;;;;;;;;;;;;;;;;5069695;28;20399;-69
2023/07/07 15:21:07;;;;;;;;;;;;;;;;;;5069732;28;19924;-69
2023/07/07 15:23:34;;;;;;;;;;;;;;;;;;5058920;28;20418;-70
2023/07/07 15:26:01;;;;;;;;;;;;;;;;;;5064418;28;20332;-70
2023/07/07 15:28:28;;;;;;;;;;;;;;;;;;5070648;28;19970;-70
2023/07/07 15:30:55;;;;;;;;;;;;;;;;;;5067458;28;19925;-67
2023/07/07 15:33:22;;;;;;;;;;;;;;;;;;5061057;28;20020;-69
2023/07/07 15:35:49;;;;;;;;;;;;;;;;;;5065954;28;20031;-70
2023/07/07 15:38:16;;;;;;;;;;;;;;;;;;5068871;28;19932;-69
2023/07/07 15:40:43;;;;;;;;;;;;;;;;;;5062585;28;20008;-70
2023/07/07 15:43:10;;;;;;;;;;;;;;;;;;5077632;28;19924;-69
2023/07/07 15:45:37;;;;;;;;;;;;;;;;;;5072812;28;19979;-69
2023/07/07 15:48:04;;;;;;;;;;;;;;;;;;5072574;28;20018;-69
2023/07/07 15:50:32;;;;;;;;;;;;;;;;;;5065975;28;20342;-68
2023/07/07 15:52:59;;;;;;;;;;;;;;;;;;5071416;28;19930;-68
2023/07/07 15:55:26;;;;;;;;;;;;;;;;;;5066017;28;20015;-69
2023/07/07 15:57:53;;;;;;;;;;;;;;;;;;5065723;28;20391;-68
2023/07/07 16:00:20;;;;;;;;;;;;;;;;;;5063956;28;19928;-69
2023/07/07 16:02:47;;;;;;;;;;;;;;;;;;5061150;28;20023;-69
2023/07/07 16:05:14;;;;;;;;;;;;;;;;;;5063803;28;20443;-69
2023/07/07 16:07:41;;;;;;;;;;;;;;;;;;5061666;28;20287;-68
2023/07/07 16:10:08;;;;;;;;;;;;;;;;;;5066749;28;19924;-67
2023/07/07 16:12:35;;;;;;;;;;;;;;;;;;5065590;28;20019;-67
2023/07/07 16:15:02;;;;;;;;;;;;;;;;;;5065983;28;19925;-68
2023/07/07 16:17:29;;;;;;;;;;;;;;;;;;5065804;28;20024;-68
2023/07/07 16:19:56;;;;;;;;;;;;;;;;;;5064893;28;20546;-67
2023/07/07 16:22:23;;;;;;;;;;;;;;;;;;5069656;28;20404;-69
2023/07/07 16:24:50;;;;;;;;;;;;;;;;;;5065708;28;19928;-67
2023/07/07 16:27:17;;;;;;;;;;;;;;;;;;5067605;28;19963;-68
2023/07/07 16:29:44;;;;;;;;;;;;;;;;;;5066957;28;19976;-67
2023/07/07 16:32:11;;;;;;;;;;;;;;;;;;5067733;28;20437;-69
2023/07/07 16:34:38;;;;;;;;;;;;;;;;;;5066193;28;20270;-68
2023/07/07 16:37:05;;;;;;;;;;;;;;;;;;5070721;28;19931;-69
2023/07/07 16:39:32;;;;;;;;;;;;;;;;;;5066100;28;20423;-68
2023/07/07 16:41:59;;;;;;;;;;;;;;;;;;5063441;28;20406;-68
2023/07/07 16:44:26;;;;;;;;;;;;;;;;;;5069184;28;20336;-68